createdAt,value
2023-05-20T00:00:04.246Z,719.20
2023-05-20T00:02:32.766Z,722.58
2023-05-20T00:05:01.376Z,708.83
2023-05-20T00:07:29.914Z,708.95
2023-05-20T00:09:58.393Z,721.53
2023-05-20T00:12:26.797Z,737.75
2023-05-20T00:14:56.503Z,716.90
2023-05-20T00:17:26.523Z,726.10
2023-05-20T00:19:55.020Z,716.63
2023-05-20T00:22:23.809Z,718.58
2023-05-20T00:24:52.173Z,732.65
2023-05-20T00:27:20.613Z,743.75
2023-05-20T00:29:49.064Z,713.75
2023-05-20T00:32:21.585Z,708.95
2023-05-20T00:34:58.161Z,724.78
2023-05-20T00:37:26.587Z,732.17
2023-05-20T00:39:55.265Z,741.95
2023-05-20T00:42:23.780Z,721.97
2023-05-20T00:44:52.553Z,726.08
2023-05-20T00:47:24.251Z,715.25
2023-05-20T00:49:53.358Z,722.80
2023-05-20T00:52:21.795Z,718.90
2023-05-20T00:54:51.626Z,727.05
2023-05-20T00:57:21.358Z,696.38
2023-05-20T00:59:49.734Z,714.78
2023-05-20T01:02:18.281Z,728.55
2023-05-20T01:04:48.234Z,699.05
2023-05-20T01:07:18.663Z,705.95
2023-05-20T01:09:47.545Z,710.55
2023-05-20T01:12:19.271Z,708.80
2023-05-20T01:14:50.946Z,708.25
2023-05-20T01:17:20.965Z,703.53
2023-05-20T01:19:51.466Z,720.45
2023-05-20T01:22:19.971Z,716.38
2023-05-20T01:24:49.813Z,731.90
2023-05-20T01:27:20.560Z,702.90
2023-05-20T01:29:50.559Z,721.10
2023-05-20T01:32:21.625Z,717.13
2023-05-20T01:34:51.196Z,724.70
2023-05-20T01:37:20.681Z,725.22
2023-05-20T01:39:51.793Z,716.85
2023-05-20T01:42:21.471Z,701.33
2023-05-20T01:44:49.933Z,709.78
2023-05-20T01:47:18.376Z,700.63
2023-05-20T01:49:47.727Z,702.97
2023-05-20T01:52:16.165Z,708.38
2023-05-20T01:54:50.888Z,711.67
2023-05-20T01:57:21.300Z,724.55
2023-05-20T01:59:49.753Z,713.80
2023-05-20T02:02:18.291Z,719.50
2023-05-20T02:04:48.762Z,713.15
2023-05-20T02:07:18.668Z,708.17
2023-05-20T02:09:49.399Z,712.83
2023-05-20T02:12:17.904Z,736.00
2023-05-20T02:14:50.297Z,706.72
2023-05-20T02:17:19.226Z,728.13
2023-05-20T02:19:47.846Z,708.67
2023-05-20T02:22:16.273Z,714.33
2023-05-20T02:24:44.694Z,721.85
2023-05-20T02:27:13.241Z,695.83
2023-05-20T02:29:41.639Z,693.25
2023-05-20T02:32:11.379Z,708.28
2023-05-20T02:34:39.816Z,687.70
2023-05-20T02:37:08.260Z,750.35
2023-05-20T02:39:36.699Z,716.72
2023-05-20T02:42:05.734Z,709.33
2023-05-20T02:44:34.154Z,729.97
2023-05-20T02:47:02.576Z,718.90
2023-05-20T02:49:32.455Z,724.80
2023-05-20T02:52:00.976Z,727.95
2023-05-20T02:54:29.354Z,692.03
2023-05-20T02:56:57.738Z,709.38
2023-05-20T02:59:26.085Z,730.03
2023-05-20T03:01:54.510Z,720.70
2023-05-20T03:04:23.002Z,720.38
2023-05-20T03:06:52.906Z,727.80
2023-05-20T03:09:21.398Z,702.65
2023-05-20T03:11:50.064Z,708.95
2023-05-20T03:14:18.467Z,714.50
2023-05-20T03:16:47.065Z,717.28
2023-05-20T03:19:16.325Z,725.08
2023-05-20T03:21:46.603Z,715.28
2023-05-20T03:24:16.902Z,728.15
2023-05-20T03:26:46.517Z,720.63
2023-05-20T03:29:15.041Z,721.97
2023-05-20T03:31:43.542Z,732.65
2023-05-20T03:34:12.112Z,739.08
2023-05-20T03:36:41.459Z,721.42
2023-05-20T03:39:09.938Z,726.83
2023-05-20T03:41:39.836Z,736.58
2023-05-20T03:44:08.285Z,734.03
2023-05-20T03:46:39.834Z,737.90
2023-05-20T03:49:08.294Z,713.75
2023-05-20T03:51:36.799Z,738.65
2023-05-20T03:54:05.199Z,728.97
2023-05-20T03:56:33.800Z,734.20
2023-05-20T03:59:03.586Z,751.70
2023-05-20T04:01:32.041Z,747.63
2023-05-20T04:04:00.565Z,730.97
2023-05-20T04:06:29.017Z,715.40
2023-05-20T04:08:57.402Z,703.80
2023-05-20T04:11:25.918Z,732.85
2023-05-20T04:13:54.945Z,696.90
2023-05-20T04:16:25.097Z,722.25
2023-05-20T04:18:53.585Z,707.83
2023-05-20T04:21:22.066Z,698.60
2023-05-20T04:23:50.428Z,759.75
2023-05-20T04:26:18.870Z,708.17
2023-05-20T04:28:48.717Z,719.90
2023-05-20T04:31:17.630Z,719.15
2023-05-20T04:33:47.450Z,728.05
2023-05-20T04:36:16.791Z,750.03
2023-05-20T04:38:45.442Z,745.40
2023-05-20T04:41:13.850Z,734.78
2023-05-20T04:43:42.900Z,753.30
2023-05-20T04:46:11.328Z,747.67
2023-05-20T04:48:39.746Z,756.25
2023-05-20T04:51:09.884Z,730.80
2023-05-20T04:53:38.711Z,717.63
2023-05-20T04:56:08.203Z,694.42
2023-05-20T04:58:36.600Z,724.15
2023-05-20T05:01:05.043Z,697.78
2023-05-20T05:03:35.855Z,686.38
2023-05-20T05:06:05.082Z,708.00
2023-05-20T05:08:34.887Z,732.40
2023-05-20T05:11:03.259Z,710.08
2023-05-20T05:13:31.602Z,707.22
2023-05-20T05:16:00.617Z,692.20
2023-05-20T05:18:29.391Z,711.92
2023-05-20T05:21:02.054Z,721.80
2023-05-20T05:23:30.820Z,1092.75
2023-05-20T05:26:00.808Z,728.85
2023-05-20T05:28:29.269Z,706.75
2023-05-20T05:30:57.911Z,710.00
2023-05-20T05:33:26.370Z,705.85
2023-05-20T05:35:56.713Z,685.08
2023-05-20T05:38:25.155Z,738.65
2023-05-20T05:40:53.919Z,861.22
2023-05-20T05:43:23.735Z,759.38
2023-05-20T05:45:52.174Z,774.45
2023-05-20T05:48:20.606Z,784.13
2023-05-20T05:50:49.021Z,735.80
2023-05-20T05:53:17.423Z,773.17
2023-05-20T05:55:47.902Z,774.92
2023-05-20T05:58:16.427Z,807.53
2023-05-20T06:00:46.333Z,744.58
2023-05-20T06:03:14.843Z,709.90
2023-05-20T06:05:47.184Z,740.05
2023-05-20T06:08:15.957Z,736.60
2023-05-20T06:10:48.019Z,743.63
2023-05-20T06:13:16.485Z,716.67
2023-05-20T06:15:47.145Z,717.25
2023-05-20T06:18:15.583Z,745.10
2023-05-20T06:20:44.069Z,759.97
2023-05-20T06:23:12.617Z,758.80
2023-05-20T06:25:41.176Z,706.80
2023-05-20T06:28:09.632Z,736.78
2023-05-20T06:30:38.713Z,715.45
2023-05-20T06:33:08.603Z,693.13
2023-05-20T06:35:37.258Z,698.17
2023-05-20T06:38:06.059Z,720.22
2023-05-20T06:40:34.679Z,697.88
2023-05-20T06:43:03.768Z,710.70
2023-05-20T06:45:32.358Z,731.75
2023-05-20T06:48:02.127Z,749.47
2023-05-20T06:50:32.129Z,743.63
2023-05-20T06:53:01.146Z,737.88
2023-05-20T06:55:30.180Z,743.28
2023-05-20T06:57:58.970Z,790.30
2023-05-20T07:00:28.037Z,796.03
2023-05-20T07:02:57.444Z,762.10
2023-05-20T07:05:27.809Z,770.90
2023-05-20T07:07:58.506Z,778.70
2023-05-20T07:10:28.056Z,770.25
2023-05-20T07:12:56.538Z,739.53
2023-05-20T07:15:27.545Z,760.08
2023-05-20T07:17:56.123Z,742.70
2023-05-20T07:20:24.716Z,767.13
2023-05-20T07:22:53.230Z,760.80
2023-05-20T07:25:23.510Z,745.35
2023-05-20T07:27:51.986Z,754.38
2023-05-20T07:30:20.705Z,768.60
2023-05-20T07:32:49.298Z,765.97
2023-05-20T07:35:17.979Z,767.05
2023-05-20T07:37:46.615Z,755.60
2023-05-20T07:40:15.532Z,773.72
2023-05-20T07:42:45.334Z,783.15
2023-05-20T07:45:14.288Z,779.90
2023-05-20T07:47:42.815Z,801.88
2023-05-20T07:50:11.983Z,792.00
2023-05-20T07:52:55.029Z,817.35
2023-05-20T07:55:24.156Z,862.97
2023-05-20T07:57:53.939Z,776.97
2023-05-20T08:00:22.765Z,774.40
2023-05-20T08:02:51.429Z,821.70
2023-05-20T08:05:20.162Z,1135.00
2023-05-20T08:07:48.683Z,894.05
2023-05-20T08:10:17.020Z,836.70
2023-05-20T08:12:45.453Z,818.47
2023-05-20T08:15:15.256Z,795.42
2023-05-20T08:17:43.838Z,755.45
2023-05-20T08:20:14.852Z,814.33
2023-05-20T08:22:43.697Z,765.72
2023-05-20T08:25:12.497Z,807.35
2023-05-20T08:27:44.235Z,787.55
2023-05-20T08:30:14.584Z,769.53
2023-05-20T08:32:43.159Z,799.83
2023-05-20T08:35:12.207Z,856.03
2023-05-20T08:37:40.845Z,854.40
2023-05-20T08:40:11.964Z,762.83
2023-05-20T08:42:43.657Z,865.53
2023-05-20T08:45:14.552Z,871.25
2023-05-20T08:47:44.063Z,785.25
2023-05-20T08:50:13.652Z,811.00
2023-05-20T08:52:45.337Z,797.03
2023-05-20T08:55:18.142Z,786.05
2023-05-20T08:57:47.243Z,779.08
2023-05-20T09:00:18.371Z,752.90
2023-05-20T09:02:47.508Z,765.75
2023-05-20T09:05:15.969Z,772.47
2023-05-20T09:07:44.498Z,771.25
2023-05-20T09:10:12.959Z,791.97
2023-05-20T09:12:41.394Z,783.13
2023-05-20T09:15:10.756Z,764.78
2023-05-20T09:17:40.738Z,749.90
2023-05-20T09:20:11.203Z,804.10
2023-05-20T09:22:41.147Z,789.65
2023-05-20T09:25:12.409Z,778.28
2023-05-20T09:27:42.179Z,782.78
2023-05-20T09:30:12.969Z,785.38
2023-05-20T09:32:42.884Z,774.22
2023-05-20T09:35:15.626Z,784.83
2023-05-20T09:37:45.204Z,815.40
2023-05-20T09:40:15.285Z,875.97
2023-05-20T09:42:45.579Z,790.70
2023-05-20T09:45:13.992Z,775.55
2023-05-20T09:47:45.388Z,799.92
2023-05-20T09:50:15.009Z,790.05
2023-05-20T09:52:44.055Z,767.55
2023-05-20T09:55:12.890Z,834.58
2023-05-20T09:57:41.822Z,1172.22
2023-05-20T10:00:13.556Z,774.45
2023-05-20T10:02:46.216Z,791.35
2023-05-20T10:05:18.677Z,821.85
2023-05-20T10:08:27.269Z,804.05
2023-05-20T10:11:04.687Z,785.03
2023-05-20T10:13:55.210Z,785.78
2023-05-20T10:16:31.099Z,789.90
2023-05-20T10:19:09.338Z,763.97
2023-05-20T10:21:37.862Z,804.38
2023-05-20T10:24:09.767Z,793.03
2023-05-20T10:26:38.651Z,810.28
2023-05-20T10:29:17.528Z,751.97
2023-05-20T10:31:47.049Z,802.88
2023-05-20T10:34:18.929Z,782.30
2023-05-20T10:36:49.466Z,806.70
2023-05-20T10:39:18.509Z,828.80
2023-05-20T10:41:47.168Z,808.17
2023-05-20T10:44:15.686Z,786.38
2023-05-20T10:49:37.272Z,839.55
2023-05-20T10:52:08.522Z,789.28
2023-05-20T10:54:38.713Z,787.72
2023-05-20T10:57:09.935Z,784.35
2023-05-20T10:59:38.826Z,784.17
2023-05-20T11:02:07.380Z,834.25
2023-05-20T11:04:37.672Z,794.28
2023-05-20T11:07:06.457Z,814.65
2023-05-20T11:09:34.987Z,789.83
2023-05-20T11:12:03.499Z,833.90
2023-05-20T11:14:32.124Z,809.33
2023-05-20T11:17:01.124Z,752.63
2023-05-20T11:19:29.954Z,795.47
2023-05-20T11:21:59.967Z,825.67
2023-05-20T11:24:29.813Z,794.58
2023-05-20T11:27:01.136Z,787.78
2023-05-20T11:29:32.188Z,782.58
2023-05-20T11:32:01.722Z,785.30
2023-05-20T11:34:35.518Z,810.03
2023-05-20T11:37:09.861Z,713.70
2023-05-20T11:39:39.295Z,768.28
2023-05-20T11:42:08.104Z,730.22
2023-05-20T11:44:36.678Z,776.78
2023-05-20T11:47:05.726Z,769.05
2023-05-20T11:49:42.076Z,827.38
2023-05-20T11:52:12.780Z,758.08
2023-05-20T11:54:41.237Z,813.83
2023-05-20T11:57:09.963Z,743.85
2023-05-20T11:59:38.367Z,807.25
2023-05-20T12:02:07.227Z,803.92
2023-05-20T12:04:35.678Z,740.00
2023-05-20T12:07:06.989Z,704.55
2023-05-20T12:09:36.751Z,744.95
2023-05-20T12:12:05.792Z,779.38
2023-05-20T12:14:34.864Z,708.00
2023-05-20T12:17:03.430Z,697.03
2023-05-20T12:19:33.161Z,699.17
2023-05-20T12:22:04.533Z,679.40
2023-05-20T12:24:33.002Z,858.63
2023-05-20T12:27:06.548Z,706.72
2023-05-20T12:29:35.082Z,663.65
2023-05-20T12:32:03.576Z,683.67
2023-05-20T12:34:33.133Z,703.13
2023-05-20T12:37:01.690Z,710.08
2023-05-20T12:39:30.146Z,699.03
2023-05-20T12:41:58.559Z,770.08
2023-05-20T12:44:28.671Z,683.35
2023-05-20T12:46:57.655Z,710.05
2023-05-20T12:49:26.180Z,702.67
2023-05-20T12:51:54.572Z,709.35
2023-05-20T12:54:23.139Z,707.13
2023-05-20T12:56:51.580Z,706.47
2023-05-20T12:59:20.031Z,753.50
2023-05-20T13:01:49.971Z,710.55
2023-05-20T13:04:18.514Z,692.67
2023-05-20T13:06:47.030Z,697.22
2023-05-20T13:09:16.068Z,691.35
2023-05-20T13:11:45.223Z,718.08
2023-05-20T13:14:15.694Z,717.92
2023-05-20T13:16:46.193Z,685.25
2023-05-20T13:19:16.319Z,730.90
2023-05-20T13:21:46.790Z,753.92
2023-05-20T13:24:15.709Z,772.78
2023-05-20T13:26:44.737Z,696.72
2023-05-20T13:29:13.522Z,691.85
2023-05-20T13:31:41.916Z,674.63
2023-05-20T13:34:10.326Z,673.00
2023-05-20T13:36:40.492Z,687.22
2023-05-20T13:39:09.014Z,684.15
2023-05-20T13:41:37.430Z,681.13
2023-05-20T13:44:06.161Z,679.78
2023-05-20T13:46:34.812Z,675.92
2023-05-20T13:49:03.463Z,690.03
2023-05-20T13:51:32.684Z,746.92
2023-05-20T13:54:02.529Z,700.22
2023-05-20T13:56:30.997Z,741.80
2023-05-20T13:58:59.406Z,791.03
2023-05-20T14:01:28.817Z,718.42
2023-05-20T14:03:57.364Z,716.67
2023-05-20T14:06:26.052Z,698.67
2023-05-20T14:08:57.423Z,713.25
2023-05-20T14:11:27.321Z,687.67
2023-05-20T14:13:56.131Z,684.47
2023-05-20T14:16:24.746Z,692.92
2023-05-20T14:18:53.694Z,692.05
2023-05-20T14:21:22.207Z,698.03
2023-05-20T14:23:50.855Z,696.75
2023-05-20T14:26:19.259Z,771.88
2023-05-20T14:28:49.124Z,678.28
2023-05-20T14:31:18.100Z,685.58
2023-05-20T14:33:47.240Z,690.33
2023-05-20T14:36:16.319Z,692.78
2023-05-20T14:38:44.926Z,707.33
2023-05-20T14:41:13.644Z,721.65
2023-05-20T14:43:42.026Z,699.42
2023-05-20T14:46:12.035Z,703.03
2023-05-20T14:48:40.466Z,692.47
2023-05-20T14:51:09.065Z,686.65
2023-05-20T14:53:37.453Z,671.45
2023-05-20T14:56:06.345Z,686.88
2023-05-20T14:58:34.729Z,671.38
2023-05-20T15:01:03.348Z,669.05
2023-05-20T15:03:33.382Z,772.05
2023-05-20T15:06:01.927Z,682.58
2023-05-20T15:08:30.275Z,678.42
2023-05-20T15:10:58.736Z,710.85
2023-05-20T15:13:27.117Z,686.30
2023-05-20T15:15:55.646Z,691.88
2023-05-20T15:18:24.117Z,763.60
2023-05-20T15:20:53.990Z,739.90
2023-05-20T15:23:22.389Z,747.60
2023-05-20T15:25:51.326Z,700.78
2023-05-20T15:28:20.112Z,703.63
2023-05-20T15:30:52.559Z,700.28
2023-05-20T15:33:21.310Z,691.55
2023-05-20T15:36:05.942Z,691.83
2023-05-20T15:38:38.837Z,694.72
2023-05-20T15:41:08.104Z,697.40
2023-05-20T15:43:36.590Z,757.47
2023-05-20T15:46:05.115Z,704.05
2023-05-20T15:48:34.853Z,703.22
2023-05-20T15:51:03.574Z,700.53
2023-05-20T15:53:32.531Z,721.55
2023-05-20T15:56:02.657Z,727.10
2023-05-20T15:58:31.052Z,705.35
2023-05-20T16:00:59.949Z,758.22
2023-05-20T16:03:29.136Z,729.05
2023-05-20T16:05:57.638Z,710.83
2023-05-20T16:08:26.217Z,728.72
2023-05-20T16:10:55.572Z,707.17
2023-05-20T16:13:25.478Z,705.30
2023-05-20T16:15:57.555Z,715.17
2023-05-20T16:18:28.531Z,767.15
2023-05-20T16:20:57.032Z,734.33
2023-05-20T16:23:25.692Z,749.35
2023-05-20T16:25:54.109Z,702.42
2023-05-20T16:28:25.395Z,718.03
2023-05-20T16:30:54.013Z,713.40
2023-05-20T16:33:22.412Z,721.22
2023-05-20T16:35:50.799Z,713.22
2023-05-20T16:38:19.253Z,735.30
2023-05-20T16:40:47.667Z,734.47
2023-05-20T16:43:16.259Z,734.83
2023-05-20T16:45:46.119Z,790.35
2023-05-20T16:48:14.672Z,736.35
2023-05-20T16:50:43.182Z,768.25
2023-05-20T16:53:11.893Z,738.28
2023-05-20T16:55:40.675Z,758.13
2023-05-20T16:58:09.214Z,746.88
2023-05-20T17:00:37.616Z,748.70
2023-05-20T17:03:07.490Z,765.17
2023-05-20T17:05:36.451Z,763.50
2023-05-20T17:08:05.037Z,782.35
2023-05-20T17:10:33.683Z,764.67
2023-05-20T17:13:02.256Z,762.30
2023-05-20T17:15:30.715Z,770.75
2023-05-20T17:17:59.183Z,760.25
2023-05-20T17:20:28.987Z,785.08
2023-05-20T17:22:57.460Z,792.80
2023-05-20T17:25:26.001Z,811.25
2023-05-20T17:27:54.637Z,869.15
2023-05-20T17:30:23.293Z,832.58
2023-05-20T17:32:53.902Z,854.30
2023-05-20T17:35:25.883Z,861.13
2023-05-20T17:37:56.042Z,859.50
2023-05-20T17:40:24.594Z,963.53
2023-05-20T17:42:53.064Z,867.22
2023-05-20T17:45:21.529Z,868.42
2023-05-20T17:47:50.011Z,870.55
2023-05-20T17:50:18.887Z,849.08
2023-05-20T17:52:47.668Z,865.35
2023-05-20T17:55:18.389Z,899.42
2023-05-20T17:57:46.806Z,973.33
2023-05-20T18:00:15.746Z,864.60
2023-05-20T18:02:47.885Z,854.88
2023-05-20T18:05:17.329Z,901.10
2023-05-20T18:07:46.009Z,873.90
2023-05-20T18:10:15.908Z,853.42
2023-05-20T18:12:45.314Z,837.05
2023-05-20T18:15:14.310Z,832.38
2023-05-20T18:17:42.758Z,827.40
2023-05-20T18:20:12.480Z,826.42
2023-05-20T18:22:45.135Z,842.33
2023-05-20T18:25:13.730Z,815.20
2023-05-20T18:27:43.983Z,804.15
2023-05-20T18:30:12.667Z,812.92
2023-05-20T18:32:41.333Z,810.88
2023-05-20T18:35:10.529Z,793.70
2023-05-20T18:37:38.904Z,788.13
2023-05-20T18:40:08.550Z,801.72
2023-05-20T18:42:37.245Z,777.22
2023-05-20T18:45:08.442Z,778.13
2023-05-20T18:47:36.965Z,794.08
2023-05-20T18:50:06.134Z,807.03
2023-05-20T18:52:34.542Z,772.70
2023-05-20T18:55:02.969Z,781.13
2023-05-20T18:57:31.630Z,773.38
2023-05-20T19:00:00.196Z,769.58
2023-05-20T19:02:30.540Z,786.55
2023-05-20T19:04:58.993Z,764.30
2023-05-20T19:07:27.477Z,759.50
2023-05-20T19:09:56.885Z,776.85
2023-05-20T19:12:25.578Z,750.80
2023-05-20T19:14:54.005Z,764.75
2023-05-20T19:17:22.453Z,774.00
2023-05-20T19:19:52.466Z,773.67
2023-05-20T19:22:20.890Z,770.08
2023-05-20T19:24:49.295Z,754.88
2023-05-20T19:27:17.759Z,733.38
2023-05-20T19:29:46.190Z,768.63
2023-05-20T19:32:14.584Z,770.53
2023-05-20T19:34:43.809Z,738.67
2023-05-20T19:37:13.686Z,746.25
2023-05-20T19:39:42.107Z,782.53
2023-05-20T19:42:10.487Z,774.10
2023-05-20T19:44:38.913Z,763.15
2023-05-20T19:47:07.861Z,781.03
2023-05-20T19:49:36.318Z,775.80
2023-05-20T19:52:04.988Z,825.42
2023-05-20T19:54:34.774Z,783.15
2023-05-20T19:57:03.155Z,785.85
2023-05-20T19:59:31.752Z,744.75
2023-05-20T20:02:02.815Z,787.00
2023-05-20T20:04:31.519Z,832.33
2023-05-20T20:07:00.076Z,793.92
2023-05-20T20:09:28.594Z,786.63
2023-05-20T20:11:58.499Z,791.22
2023-05-20T20:14:26.916Z,782.90
2023-05-20T20:16:55.534Z,764.42
2023-05-20T20:19:26.083Z,788.20
2023-05-20T20:21:56.550Z,790.38
2023-05-20T20:24:25.141Z,793.13
2023-05-20T20:26:54.282Z,791.83
2023-05-20T20:29:24.445Z,772.20
2023-05-20T20:31:53.083Z,793.45
2023-05-20T20:34:22.019Z,789.05
2023-05-20T20:36:51.250Z,799.33
2023-05-20T20:39:19.959Z,774.40
2023-05-20T20:41:50.456Z,782.15
2023-05-20T20:44:22.501Z,794.55
2023-05-20T20:46:52.637Z,784.05
2023-05-20T20:49:22.018Z,785.65
2023-05-20T20:51:51.381Z,793.58
2023-05-20T20:54:19.736Z,751.95
2023-05-20T20:56:48.395Z,788.33
2023-05-20T20:59:16.836Z,797.28
2023-05-20T21:01:45.439Z,765.95
2023-05-20T21:04:17.268Z,765.35
2023-05-20T21:06:46.209Z,783.10
2023-05-20T21:09:14.647Z,782.60
2023-05-20T21:11:43.249Z,768.38
2023-05-20T21:14:12.022Z,763.88
2023-05-20T21:16:42.012Z,764.65
2023-05-20T21:19:10.669Z,764.58
2023-05-20T21:21:40.546Z,756.63
2023-05-20T21:24:09.259Z,783.35
2023-05-20T21:26:37.686Z,760.42
2023-05-20T21:29:07.313Z,771.92
2023-05-20T21:31:35.754Z,756.70
2023-05-20T21:34:05.451Z,761.58
2023-05-20T21:36:33.874Z,768.88
2023-05-20T21:39:03.887Z,796.63
2023-05-20T21:41:32.365Z,752.05
2023-05-20T21:44:00.766Z,768.20
2023-05-20T21:46:29.207Z,742.15
2023-05-20T21:48:57.825Z,738.13
2023-05-20T21:51:26.238Z,745.28
2023-05-20T21:53:56.789Z,750.92
2023-05-20T21:56:27.361Z,747.58
2023-05-20T21:58:55.755Z,765.65
2023-05-20T22:01:24.205Z,755.80
2023-05-20T22:03:53.346Z,753.35
2023-05-20T22:06:22.458Z,759.63
2023-05-20T22:08:51.353Z,740.20
2023-05-20T22:11:21.689Z,753.67
2023-05-20T22:13:53.617Z,747.83
2023-05-20T22:16:22.352Z,743.58
2023-05-20T22:18:50.818Z,744.25
2023-05-20T22:21:19.864Z,768.42
2023-05-20T22:23:48.821Z,753.13
2023-05-20T22:26:18.851Z,809.58
2023-05-20T22:28:47.340Z,746.70
2023-05-20T22:31:17.116Z,738.67
2023-05-20T22:33:45.541Z,731.38
2023-05-20T22:36:13.984Z,771.33
2023-05-20T22:38:42.827Z,764.13
2023-05-20T22:41:11.268Z,752.58
2023-05-20T22:43:39.684Z,746.00
2023-05-20T22:46:08.101Z,762.20
2023-05-20T22:48:37.799Z,770.90
2023-05-20T22:51:08.843Z,758.22
2023-05-20T22:53:37.325Z,798.22
2023-05-20T22:56:06.389Z,729.75
2023-05-20T22:58:39.495Z,748.35
2023-05-20T23:01:08.117Z,757.08
2023-05-20T23:03:38.215Z,726.38
2023-05-20T23:06:06.674Z,733.95
2023-05-20T23:08:35.291Z,729.40
2023-05-20T23:11:03.672Z,757.90
2023-05-20T23:13:32.377Z,755.15
2023-05-20T23:16:01.380Z,754.20
2023-05-20T23:18:30.430Z,757.65
2023-05-20T23:21:00.606Z,769.83
2023-05-20T23:23:31.848Z,764.78
2023-05-20T23:26:01.566Z,754.28
2023-05-20T23:28:30.060Z,754.15
2023-05-20T23:30:59.102Z,751.17
2023-05-20T23:33:27.597Z,758.95
2023-05-20T23:35:56.043Z,774.25
2023-05-20T23:38:25.947Z,763.20
2023-05-20T23:40:54.409Z,767.90
2023-05-20T23:43:22.755Z,772.22
2023-05-20T23:45:51.153Z,769.75
2023-05-20T23:48:19.840Z,777.22
2023-05-20T23:50:48.903Z,753.67
2023-05-20T23:53:17.459Z,772.33
2023-05-20T23:55:49.468Z,787.30
2023-05-20T23:58:17.856Z,771.22
